createdAt,value
2022-10-11T00:01:46.844Z,13.40
2022-10-11T00:05:47.953Z,13.19
2022-10-11T00:09:47.468Z,13.43
2022-10-11T00:13:47.396Z,13.39
2022-10-11T00:17:49.780Z,13.39
2022-10-11T00:21:49.553Z,13.36
2022-10-11T00:25:58.845Z,13.27
2022-10-11T00:29:58.773Z,13.33
2022-10-11T00:34:00.616Z,13.33
2022-10-11T00:38:00.472Z,13.29
2022-10-11T00:42:00.245Z,13.30
2022-10-11T00:46:08.745Z,13.40
2022-10-11T00:50:13.346Z,13.54
2022-10-11T00:54:17.058Z,13.50
2022-10-11T00:58:17.191Z,13.54
2022-10-11T01:02:17.455Z,13.67
2022-10-11T01:06:18.932Z,13.70
2022-10-11T01:10:18.706Z,13.82
2022-10-11T01:14:37.889Z,13.81
2022-10-11T01:18:47.251Z,13.89
2022-10-11T01:23:15.745Z,14.16
2022-10-11T01:27:34.870Z,14.29
2022-10-11T01:31:42.335Z,14.23
2022-10-11T01:35:47.567Z,13.67
2022-10-11T01:39:53.619Z,13.76
2022-10-11T01:43:59.896Z,13.85
2022-10-11T01:48:10.370Z,13.83
2022-10-11T01:52:10.281Z,13.79
2022-10-11T01:56:25.409Z,13.56
2022-10-11T02:00:28.292Z,13.54
2022-10-11T02:04:35.843Z,13.54
2022-10-11T02:08:41.865Z,13.58
2022-10-11T02:12:44.951Z,13.77
2022-10-11T02:16:48.043Z,13.75
2022-10-11T02:20:52.267Z,13.65
2022-10-11T02:24:56.034Z,13.55
2022-10-11T02:29:00.010Z,13.43
2022-10-11T02:33:00.749Z,13.17
2022-10-11T02:37:10.505Z,13.23
2022-10-11T02:41:17.738Z,13.24
2022-10-11T02:45:21.209Z,13.20
2022-10-11T02:49:22.164Z,13.26
2022-10-11T02:53:24.664Z,13.36
2022-10-11T02:57:24.161Z,13.45
2022-10-11T03:01:23.435Z,13.45
2022-10-11T03:05:22.924Z,13.77
2022-10-11T03:09:24.244Z,14.13
2022-10-11T03:13:24.071Z,14.53
2022-10-11T03:17:36.101Z,14.75
2022-10-11T03:21:36.624Z,15.02
2022-10-11T03:25:38.312Z,14.96
2022-10-11T03:29:37.825Z,14.72
2022-10-11T03:33:37.420Z,14.76
2022-10-11T03:37:36.973Z,14.44
2022-10-11T03:41:38.609Z,14.60
2022-10-11T03:45:38.485Z,14.10
2022-10-11T03:49:42.748Z,14.20
2022-10-11T03:53:43.719Z,14.06
2022-10-11T03:57:45.623Z,13.88
2022-10-11T04:01:45.596Z,13.39
2022-10-11T04:05:45.590Z,13.08
2022-10-11T04:09:45.253Z,12.92
2022-10-11T04:13:47.043Z,12.90
2022-10-11T04:17:46.682Z,12.87
2022-10-11T04:21:46.328Z,12.82
2022-10-11T04:25:54.991Z,12.72
2022-10-11T04:29:56.955Z,12.55
2022-10-11T04:33:56.780Z,12.64
2022-10-11T04:37:56.317Z,12.56
2022-10-11T04:41:59.069Z,12.51
2022-10-11T04:46:00.901Z,12.39
2022-10-11T04:50:00.071Z,12.17
2022-10-11T04:54:00.028Z,11.96
2022-10-11T04:57:59.814Z,11.99
2022-10-11T05:02:01.327Z,12.03
2022-10-11T05:06:05.439Z,12.03
2022-10-11T05:10:05.350Z,12.17
2022-10-11T05:14:05.208Z,12.21
2022-10-11T05:18:07.346Z,12.04
2022-10-11T05:22:15.990Z,12.40
2022-10-11T05:26:19.476Z,12.42
2022-10-11T05:30:19.641Z,12.49
2022-10-11T05:34:21.787Z,12.61
2022-10-11T05:38:21.407Z,12.35
2022-10-11T05:42:21.170Z,12.62
2022-10-11T05:46:21.088Z,12.81
2022-10-11T05:50:24.411Z,12.84
2022-10-11T05:54:27.489Z,12.78
2022-10-11T05:58:32.919Z,12.76
2022-10-11T06:02:32.787Z,12.79
2022-10-11T06:06:36.540Z,12.88
2022-10-11T06:10:37.230Z,13.01
2022-10-11T06:14:37.798Z,13.18
2022-10-11T06:18:37.814Z,13.36
2022-10-11T06:22:40.310Z,13.60
2022-10-11T06:26:50.545Z,13.53
2022-10-11T06:30:49.301Z,13.63
2022-10-11T06:34:49.026Z,13.70
2022-10-11T06:38:53.443Z,13.87
2022-10-11T06:42:54.407Z,14.12
2022-10-11T06:46:54.027Z,14.30
2022-10-11T06:50:59.938Z,14.43
2022-10-11T06:55:02.366Z,14.70
2022-10-11T06:59:03.144Z,14.45
2022-10-11T07:03:02.797Z,14.99
2022-10-11T07:07:02.453Z,15.18
2022-10-11T07:11:07.309Z,15.35
2022-10-11T07:15:08.338Z,15.52
2022-10-11T07:19:08.682Z,15.77
2022-10-11T07:23:07.798Z,15.75
2022-10-11T07:27:09.430Z,15.80
2022-10-11T07:31:11.425Z,16.10
2022-10-11T07:35:11.375Z,16.40
2022-10-11T07:39:11.580Z,16.50
2022-10-11T07:43:14.727Z,16.76
2022-10-11T07:47:14.470Z,16.78
2022-10-11T07:51:20.044Z,16.61
2022-10-11T07:55:20.042Z,16.64
2022-10-11T07:59:21.591Z,16.82
2022-10-11T08:03:21.484Z,16.75
2022-10-11T08:07:21.465Z,16.84
2022-10-11T08:11:30.337Z,17.11
2022-10-11T08:15:32.028Z,17.34
2022-10-11T08:19:31.518Z,17.60
2022-10-11T08:23:31.094Z,17.86
2022-10-11T08:27:30.807Z,17.97
2022-10-11T08:31:46.558Z,18.10
2022-10-11T08:35:52.184Z,17.92
2022-10-11T08:39:54.499Z,17.94
2022-10-11T08:44:12.618Z,18.15
2022-10-11T08:48:21.606Z,18.25
2022-10-11T08:52:28.730Z,18.00
2022-10-11T08:56:29.500Z,17.16
2022-10-11T09:00:35.395Z,17.56
2022-10-11T09:04:46.958Z,17.79
2022-10-11T09:09:01.389Z,18.16
2022-10-11T09:13:20.839Z,18.46
2022-10-11T09:17:40.295Z,18.37
2022-10-11T09:21:49.118Z,17.97
2022-10-11T09:25:57.238Z,18.46
2022-10-11T09:30:11.057Z,18.49
2022-10-11T09:34:27.766Z,18.31
2022-10-11T09:38:48.806Z,18.25
2022-10-11T09:42:48.489Z,18.04
2022-10-11T09:46:49.658Z,17.91
2022-10-11T09:50:50.866Z,18.52
2022-10-11T09:55:03.617Z,18.77
2022-10-11T09:59:24.008Z,18.70
2022-10-11T10:03:29.704Z,18.73
2022-10-11T10:07:31.067Z,18.94
2022-10-11T10:11:38.868Z,19.21
2022-10-11T10:15:40.268Z,19.47
2022-10-11T10:19:45.408Z,19.90
2022-10-11T10:23:46.365Z,20.08
2022-10-11T10:27:59.016Z,20.07
2022-10-11T10:32:13.799Z,19.83
2022-10-11T10:36:29.439Z,19.62
2022-10-11T10:40:39.715Z,19.85
2022-10-11T10:44:41.714Z,20.07
2022-10-11T10:49:28.326Z,20.26
2022-10-11T10:53:36.247Z,20.55
2022-10-11T10:57:44.508Z,20.37
2022-10-11T11:01:56.514Z,20.54
2022-10-11T11:06:04.065Z,20.54
2022-10-11T11:11:23.738Z,20.68
2022-10-11T11:15:37.616Z,20.84
2022-10-11T11:19:54.550Z,20.80
2022-10-11T11:24:05.902Z,21.04
2022-10-11T11:28:20.361Z,21.23
2022-10-11T11:32:25.743Z,21.29
2022-10-11T11:36:35.762Z,21.12
2022-10-11T11:40:40.344Z,21.44
2022-10-11T11:44:42.643Z,21.35
2022-10-11T11:48:43.218Z,21.71
2022-10-11T11:52:50.260Z,21.60
2022-10-11T11:57:00.123Z,21.76
2022-10-11T12:01:07.125Z,21.65
2022-10-11T12:05:11.020Z,21.67
2022-10-11T12:09:24.928Z,21.65
2022-10-11T12:13:32.446Z,21.68
2022-10-11T12:17:32.327Z,21.72
2022-10-11T12:21:35.107Z,21.70
2022-10-11T12:26:33.056Z,21.78
2022-10-11T12:30:55.316Z,21.90
2022-10-11T12:35:44.394Z,21.90
2022-10-11T12:39:53.665Z,22.05
2022-10-11T12:44:14.061Z,21.96
2022-10-11T12:48:50.970Z,22.07
2022-10-11T12:53:01.299Z,22.10
2022-10-11T12:57:22.297Z,22.03
2022-10-11T13:01:24.621Z,22.24
2022-10-11T13:05:31.937Z,22.25
2022-10-11T13:09:34.228Z,22.18
2022-10-11T13:13:39.974Z,22.10
2022-10-11T13:17:41.436Z,21.73
2022-10-11T13:21:43.565Z,21.42
2022-10-11T13:25:44.045Z,21.50
2022-10-11T13:29:47.939Z,21.18
2022-10-11T13:33:48.406Z,21.11
2022-10-11T13:37:51.671Z,21.30
2022-10-11T13:41:51.605Z,21.58
2022-10-11T13:46:02.856Z,21.80
2022-10-11T13:50:23.630Z,21.98
2022-10-11T13:55:14.865Z,22.19
2022-10-11T13:59:24.823Z,22.20
2022-10-11T14:03:32.329Z,22.38
2022-10-11T14:07:41.325Z,22.46
2022-10-11T14:11:43.416Z,22.40
2022-10-11T14:15:48.364Z,22.37
2022-10-11T14:20:11.587Z,22.72
2022-10-11T14:24:16.091Z,22.51
2022-10-11T14:28:20.622Z,21.84
2022-10-11T14:32:35.264Z,21.73
2022-10-11T14:36:43.585Z,21.61
2022-10-11T14:40:47.594Z,21.50
2022-10-11T14:45:13.467Z,21.54
2022-10-11T14:49:16.156Z,21.84
2022-10-11T14:53:16.573Z,21.85
2022-10-11T14:57:16.027Z,21.90
2022-10-11T15:01:19.525Z,22.01
2022-10-11T15:05:19.415Z,22.10
2022-10-11T15:09:20.568Z,22.15
2022-10-11T15:13:22.269Z,22.20
2022-10-11T15:17:24.158Z,22.20
2022-10-11T15:21:32.970Z,22.25
2022-10-11T15:25:34.778Z,22.26
2022-10-11T15:29:37.330Z,22.36
2022-10-11T15:33:42.400Z,21.99
2022-10-11T15:37:42.694Z,21.65
2022-10-11T15:41:42.287Z,21.26
2022-10-11T15:45:43.975Z,21.01
2022-10-11T15:50:28.984Z,21.11
2022-10-11T15:54:31.163Z,21.15
2022-10-11T15:58:32.704Z,21.14
2022-10-11T16:02:32.505Z,21.23
2022-10-11T16:06:33.036Z,21.55
2022-10-11T16:10:36.584Z,21.51
2022-10-11T16:14:36.436Z,21.56
2022-10-11T16:18:36.623Z,21.37
2022-10-11T16:22:36.222Z,21.13
2022-10-11T16:26:38.116Z,21.08
2022-10-11T16:30:40.666Z,21.09
2022-10-11T16:34:40.422Z,21.19
2022-10-11T16:38:40.123Z,21.11
2022-10-11T16:42:42.260Z,21.29
2022-10-11T16:46:42.154Z,21.31
2022-10-11T16:50:41.820Z,21.39
2022-10-11T16:54:44.087Z,21.22
2022-10-11T16:58:45.975Z,21.28
2022-10-11T17:02:45.731Z,21.09
2022-10-11T17:06:45.595Z,21.16
2022-10-11T17:10:47.255Z,21.08
2022-10-11T17:14:49.725Z,20.88
2022-10-11T17:18:49.125Z,20.66
2022-10-11T17:22:50.108Z,20.85
2022-10-11T17:26:50.068Z,20.91
2022-10-11T17:30:57.132Z,20.98
2022-10-11T17:34:58.845Z,20.77
2022-10-11T17:38:58.793Z,20.42
2022-10-11T17:42:58.528Z,20.18
2022-10-11T17:47:00.554Z,20.26
2022-10-11T17:51:00.254Z,20.59
2022-10-11T17:55:00.165Z,20.47
2022-10-11T17:59:01.122Z,20.63
2022-10-11T18:03:03.040Z,20.49
2022-10-11T18:07:02.864Z,20.09
2022-10-11T18:11:02.978Z,20.26
2022-10-11T18:15:02.220Z,20.26
2022-10-11T18:19:04.666Z,19.83
2022-10-11T18:23:04.402Z,19.68
2022-10-11T18:27:03.773Z,19.38
2022-10-11T18:31:06.430Z,19.48
2022-10-11T18:35:11.559Z,19.84
2022-10-11T18:39:14.757Z,19.92
2022-10-11T18:43:14.515Z,20.00
2022-10-11T18:47:14.225Z,20.23
2022-10-11T18:51:18.424Z,20.46
2022-10-11T18:55:18.785Z,20.08
2022-10-11T18:59:19.673Z,19.81
2022-10-11T19:03:19.482Z,19.44
2022-10-11T19:07:20.948Z,19.25
2022-10-11T19:11:24.815Z,19.28
2022-10-11T19:15:28.630Z,19.58
2022-10-11T19:19:30.604Z,19.46
2022-10-11T19:23:35.900Z,19.46
2022-10-11T19:27:35.615Z,19.16
2022-10-11T19:31:36.778Z,19.14
2022-10-11T19:35:36.675Z,19.44
2022-10-11T19:39:38.508Z,19.65
2022-10-11T19:43:38.368Z,19.56
2022-10-11T19:47:38.015Z,19.83
2022-10-11T19:51:38.129Z,20.07
2022-10-11T19:55:43.045Z,20.12
2022-10-11T19:59:46.264Z,20.05
2022-10-11T20:03:46.587Z,20.02
2022-10-11T20:07:46.325Z,19.71
2022-10-11T20:11:48.086Z,19.77
2022-10-11T20:15:47.719Z,19.94
2022-10-11T20:19:47.282Z,19.78
2022-10-11T20:23:49.074Z,19.43
2022-10-11T20:27:50.856Z,19.21
2022-10-11T20:31:50.574Z,18.90
2022-10-11T20:36:00.200Z,18.64
2022-10-11T20:39:59.400Z,18.73
2022-10-11T20:44:03.060Z,18.96
2022-10-11T20:48:02.688Z,19.19
2022-10-11T20:52:02.355Z,19.14
2022-10-11T20:56:02.527Z,18.88
2022-10-11T21:00:04.586Z,18.76
2022-10-11T21:04:04.541Z,18.64
2022-10-11T21:08:04.754Z,18.49
2022-10-11T21:12:04.386Z,18.34
2022-10-11T21:16:11.565Z,17.98
2022-10-11T21:20:12.485Z,18.11
2022-10-11T21:24:12.235Z,18.13
2022-10-11T21:28:12.099Z,18.19
2022-10-11T21:32:14.640Z,18.68
2022-10-11T21:36:15.981Z,18.93
2022-10-11T21:40:15.638Z,18.73
2022-10-11T21:44:15.359Z,18.82
2022-10-11T21:48:16.717Z,18.55
2022-10-11T21:52:16.794Z,18.31
2022-10-11T21:56:16.428Z,18.13
2022-10-11T22:00:17.372Z,18.12
2022-10-11T22:04:19.088Z,18.17
2022-10-11T22:08:18.255Z,18.16
2022-10-11T22:12:18.023Z,17.88
2022-10-11T22:16:17.726Z,18.12
2022-10-11T22:20:19.721Z,17.97
2022-10-11T22:24:19.434Z,17.81
2022-10-11T22:28:19.417Z,17.66
2022-10-11T22:32:19.255Z,17.59
2022-10-11T22:36:21.105Z,17.74
2022-10-11T22:40:21.406Z,17.87
2022-10-11T22:44:21.023Z,17.83
2022-10-11T22:48:20.708Z,17.95
2022-10-11T22:52:24.932Z,18.10
2022-10-11T22:56:26.822Z,18.17
2022-10-11T23:00:26.939Z,18.27
2022-10-11T23:04:26.756Z,18.64
2022-10-11T23:08:28.342Z,18.68
2022-10-11T23:12:27.933Z,18.37
2022-10-11T23:16:27.637Z,18.20
2022-10-11T23:20:27.343Z,18.54
2022-10-11T23:24:29.096Z,18.78
2022-10-11T23:28:28.666Z,18.50
2022-10-11T23:32:28.312Z,18.29
2022-10-11T23:36:28.407Z,18.59
2022-10-11T23:40:29.582Z,19.05
2022-10-11T23:44:30.339Z,19.34
2022-10-11T23:48:30.168Z,19.52
2022-10-11T23:52:32.448Z,19.78
2022-10-11T23:56:33.741Z,19.89
